createdAt,value
2019-03-05T00:00:52.055Z,19.73
2019-03-05T00:04:00.021Z,15.87
2019-03-05T00:07:05.329Z,14.63
2019-03-05T00:10:11.686Z,11.67
2019-03-05T00:13:17.078Z,10.97
2019-03-05T00:16:22.507Z,8.37
2019-03-05T00:19:27.816Z,8.97
2019-03-05T00:22:33.143Z,6.40
2019-03-05T00:25:38.541Z,8.17
2019-03-05T00:29:25.717Z,7.20
2019-03-05T00:32:31.072Z,9.60
2019-03-05T00:35:43.385Z,9.63
2019-03-05T00:39:35.171Z,8.90
2019-03-05T00:43:02.637Z,9.10
2019-03-05T00:46:56.146Z,9.77
2019-03-05T00:50:42.093Z,8.67
2019-03-05T00:54:05.489Z,10.20
2019-03-05T00:57:54.681Z,10.03
2019-03-05T01:01:30.081Z,15.13
2019-03-05T01:05:25.870Z,11.70
2019-03-05T01:08:33.165Z,12.43
2019-03-05T01:11:38.597Z,11.77
2019-03-05T01:14:44.191Z,10.33
2019-03-05T01:17:50.467Z,12.40
2019-03-05T01:20:55.716Z,18.20
2019-03-05T01:24:00.999Z,12.33
2019-03-05T01:27:06.432Z,15.60
2019-03-05T01:30:29.489Z,11.37
2019-03-05T01:33:39.505Z,8.47
2019-03-05T01:36:47.802Z,9.87
2019-03-05T01:40:18.021Z,10.10
2019-03-05T01:43:23.294Z,11.63
2019-03-05T01:46:30.259Z,10.20
2019-03-05T01:49:35.476Z,10.47
2019-03-05T01:52:40.766Z,11.63
2019-03-05T01:55:46.034Z,16.57
2019-03-05T01:58:51.360Z,19.37
2019-03-05T02:01:56.626Z,14.10
2019-03-05T02:05:01.866Z,26.70
2019-03-05T02:08:07.115Z,17.77
2019-03-05T02:11:13.468Z,13.27
2019-03-05T02:14:18.711Z,19.67
2019-03-05T02:17:24.951Z,20.30
2019-03-05T02:20:30.289Z,22.60
2019-03-05T02:24:00.789Z,19.53
2019-03-05T02:27:47.771Z,17.47
2019-03-05T02:31:23.124Z,22.10
2019-03-05T02:35:12.400Z,23.43
2019-03-05T02:38:29.554Z,19.57
2019-03-05T02:41:52.908Z,12.30
2019-03-05T02:45:38.942Z,16.53
2019-03-05T02:49:49.725Z,15.73
2019-03-05T02:53:42.036Z,24.93
2019-03-05T02:57:01.320Z,20.13
2019-03-05T03:00:13.034Z,20.30
2019-03-05T03:03:27.053Z,28.70
2019-03-05T03:06:34.511Z,21.57
2019-03-05T03:10:14.006Z,16.10
2019-03-05T03:13:19.339Z,14.17
2019-03-05T03:16:24.642Z,22.20
2019-03-05T03:19:29.926Z,18.07
2019-03-05T03:22:35.213Z,13.97
2019-03-05T03:25:40.473Z,18.23
2019-03-05T03:28:45.681Z,16.07
2019-03-05T03:31:50.975Z,14.90
2019-03-05T03:34:56.550Z,25.97
2019-03-05T03:38:02.006Z,10.60
2019-03-05T03:41:08.480Z,14.20
2019-03-05T03:44:13.781Z,20.97
2019-03-05T03:47:19.024Z,13.53
2019-03-05T03:50:24.458Z,17.30
2019-03-05T03:53:29.874Z,20.30
2019-03-05T03:56:35.101Z,23.23
2019-03-05T03:59:40.362Z,19.13
2019-03-05T04:02:45.706Z,21.13
2019-03-05T04:05:53.162Z,11.13
2019-03-05T04:08:58.514Z,16.37
2019-03-05T04:12:03.785Z,20.17
2019-03-05T04:15:11.802Z,14.37
2019-03-05T04:18:17.067Z,19.80
2019-03-05T04:21:22.326Z,16.23
2019-03-05T04:24:27.595Z,14.00
2019-03-05T04:27:32.904Z,20.23
2019-03-05T04:30:38.247Z,16.13
2019-03-05T04:33:43.554Z,19.37
2019-03-05T04:36:48.845Z,12.87
2019-03-05T04:39:54.059Z,15.47
2019-03-05T04:42:59.446Z,14.20
2019-03-05T04:46:28.235Z,17.53
2019-03-05T04:49:44.096Z,8.77
2019-03-05T04:52:49.374Z,7.37
2019-03-05T04:55:54.645Z,9.33
2019-03-05T04:58:59.921Z,13.33
2019-03-05T05:02:05.491Z,8.90
2019-03-05T05:05:10.755Z,8.53
2019-03-05T05:08:16.042Z,5.63
2019-03-05T05:11:21.439Z,10.30
2019-03-05T05:14:26.764Z,7.60
2019-03-05T05:17:31.999Z,7.10
2019-03-05T05:20:37.255Z,8.20
2019-03-05T05:23:42.505Z,7.77
2019-03-05T05:26:49.313Z,9.40
2019-03-05T05:29:54.609Z,8.40
2019-03-05T05:33:00.775Z,4.70
2019-03-05T05:36:08.325Z,10.90
2019-03-05T05:39:49.390Z,6.53
2019-03-05T05:42:54.680Z,11.10
2019-03-05T05:46:00.025Z,10.03
2019-03-05T05:49:05.363Z,11.93
2019-03-05T05:52:10.730Z,10.47
2019-03-05T05:55:15.971Z,10.67
2019-03-05T05:58:21.215Z,15.73
2019-03-05T06:01:26.466Z,10.13
2019-03-05T06:04:31.703Z,13.80
2019-03-05T06:07:36.977Z,11.33
2019-03-05T06:10:42.280Z,17.60
2019-03-05T06:13:47.559Z,17.67
2019-03-05T06:16:52.939Z,13.97
2019-03-05T06:19:58.172Z,13.87
2019-03-05T06:23:03.472Z,12.33
2019-03-05T06:26:08.933Z,12.20
2019-03-05T06:29:14.175Z,15.40
2019-03-05T06:32:19.431Z,17.77
2019-03-05T06:35:25.763Z,13.03
2019-03-05T06:38:31.021Z,13.30
2019-03-05T06:41:36.361Z,16.33
2019-03-05T06:44:41.700Z,22.03
2019-03-05T06:47:46.929Z,12.20
2019-03-05T06:50:52.190Z,12.17
2019-03-05T06:53:57.519Z,12.90
2019-03-05T06:57:02.745Z,12.77
2019-03-05T07:00:24.154Z,14.00
2019-03-05T07:03:29.477Z,14.87
2019-03-05T07:07:00.338Z,13.47
2019-03-05T07:10:29.230Z,11.53
2019-03-05T07:13:35.644Z,17.30
2019-03-05T07:17:07.957Z,10.40
2019-03-05T07:20:53.099Z,12.73
2019-03-05T07:24:28.053Z,13.60
2019-03-05T07:27:38.394Z,11.70
2019-03-05T07:30:43.703Z,12.67
2019-03-05T07:33:49.025Z,22.10
2019-03-05T07:36:55.253Z,24.33
2019-03-05T07:40:00.485Z,15.53
2019-03-05T07:43:05.793Z,14.80
2019-03-05T07:46:11.097Z,15.17
2019-03-05T07:49:18.848Z,14.67
2019-03-05T07:52:23.498Z,14.90
2019-03-05T07:55:28.762Z,16.03
2019-03-05T07:58:34.164Z,11.37
2019-03-05T08:01:39.449Z,11.87
2019-03-05T08:04:44.889Z,13.40
2019-03-05T08:07:51.624Z,12.40
2019-03-05T08:10:56.874Z,12.77
2019-03-05T08:14:28.733Z,10.43
2019-03-05T08:17:34.010Z,9.10
2019-03-05T08:20:39.328Z,14.30
2019-03-05T08:23:44.564Z,10.60
2019-03-05T08:26:50.783Z,10.93
2019-03-05T08:29:57.613Z,13.20
2019-03-05T08:33:03.094Z,10.23
2019-03-05T08:36:08.460Z,14.83
2019-03-05T08:39:13.829Z,9.80
2019-03-05T08:42:19.113Z,13.73
2019-03-05T08:45:29.253Z,14.47
2019-03-05T08:48:31.407Z,10.63
2019-03-05T08:51:36.708Z,15.37
2019-03-05T08:54:42.094Z,10.80
2019-03-05T08:57:47.354Z,12.80
2019-03-05T09:00:52.619Z,12.87
2019-03-05T09:03:58.037Z,10.13
2019-03-05T09:07:03.305Z,11.83
2019-03-05T09:10:11.627Z,11.60
2019-03-05T09:13:16.879Z,8.70
2019-03-05T09:16:22.164Z,12.00
2019-03-05T09:19:28.463Z,7.03
2019-03-05T09:22:35.262Z,13.40
2019-03-05T09:25:42.759Z,13.00
2019-03-05T09:28:47.993Z,9.80
2019-03-05T09:31:53.313Z,13.80
2019-03-05T09:34:58.597Z,10.03
2019-03-05T09:38:03.937Z,10.93
2019-03-05T09:41:09.247Z,10.93
2019-03-05T09:44:14.590Z,11.73
2019-03-05T09:47:19.820Z,12.67
2019-03-05T09:50:25.115Z,10.10
2019-03-05T09:53:30.463Z,13.60
2019-03-05T09:56:35.728Z,7.40
2019-03-05T09:59:41.012Z,8.63
2019-03-05T10:02:46.279Z,6.00
2019-03-05T10:05:51.502Z,6.80
2019-03-05T10:08:56.757Z,9.17
2019-03-05T10:12:02.023Z,10.83
2019-03-05T10:15:10.092Z,9.30
2019-03-05T10:18:15.358Z,8.10
2019-03-05T10:21:20.583Z,9.73
2019-03-05T10:24:28.623Z,9.67
2019-03-05T10:27:33.933Z,8.93
2019-03-05T10:30:40.458Z,8.53
2019-03-05T10:33:45.702Z,9.73
2019-03-05T10:36:51.197Z,9.90
2019-03-05T10:39:56.433Z,6.30
2019-03-05T10:43:08.373Z,7.53
2019-03-05T10:46:11.060Z,9.03
2019-03-05T10:49:16.337Z,5.97
2019-03-05T10:52:21.558Z,5.67
2019-03-05T10:55:26.815Z,7.03
2019-03-05T10:58:34.148Z,6.07
2019-03-05T11:01:39.222Z,4.93
2019-03-05T11:04:46.203Z,6.00
2019-03-05T11:07:52.532Z,4.00
2019-03-05T11:10:59.500Z,4.60
2019-03-05T11:14:05.048Z,5.57
2019-03-05T11:17:10.470Z,4.53
2019-03-05T11:20:15.852Z,5.10
2019-03-05T11:23:21.207Z,4.67
2019-03-05T11:26:26.502Z,5.50
2019-03-05T11:29:31.853Z,8.60
2019-03-05T11:32:37.158Z,6.43
2019-03-05T11:35:42.495Z,7.30
2019-03-05T11:38:47.872Z,7.57
2019-03-05T11:41:53.164Z,5.43
2019-03-05T11:45:07.093Z,7.33
2019-03-05T11:48:05.596Z,6.90
2019-03-05T11:51:12.077Z,6.53
2019-03-05T11:54:17.332Z,5.73
2019-03-05T11:57:22.624Z,6.23
2019-03-05T12:00:36.622Z,8.20
2019-03-05T12:03:41.994Z,5.40
2019-03-05T12:06:47.319Z,5.87
2019-03-05T12:09:52.566Z,7.60
2019-03-05T12:12:57.849Z,6.47
2019-03-05T12:16:07.717Z,6.97
2019-03-05T12:19:13.033Z,12.70
2019-03-05T12:22:18.262Z,6.67
2019-03-05T12:25:23.827Z,7.97
2019-03-05T12:28:29.361Z,9.60
2019-03-05T12:31:34.642Z,8.30
2019-03-05T12:34:39.998Z,10.13
2019-03-05T12:37:45.247Z,10.07
2019-03-05T12:40:50.613Z,6.90
2019-03-05T12:43:55.908Z,10.27
2019-03-05T12:47:01.221Z,8.60
2019-03-05T12:50:08.502Z,10.10
2019-03-05T12:53:15.930Z,14.50
2019-03-05T12:56:24.151Z,7.23
2019-03-05T12:59:27.665Z,11.57
2019-03-05T13:02:32.966Z,9.40
2019-03-05T13:05:38.185Z,8.20
2019-03-05T13:08:43.471Z,6.43
2019-03-05T13:11:49.972Z,9.47
2019-03-05T13:14:55.699Z,5.97
2019-03-05T13:18:02.780Z,9.20
2019-03-05T13:21:14.107Z,6.80
2019-03-05T13:24:19.439Z,9.33
2019-03-05T13:27:24.740Z,8.23
2019-03-05T13:30:30.117Z,7.13
2019-03-05T13:33:38.074Z,9.73
2019-03-05T13:36:42.528Z,6.53
2019-03-05T13:39:47.953Z,8.00
2019-03-05T13:42:53.462Z,9.40
2019-03-05T13:46:00.139Z,8.23
2019-03-05T13:49:57.620Z,8.03
2019-03-05T13:54:01.139Z,11.63
2019-03-05T13:57:40.294Z,12.33
2019-03-05T14:00:45.608Z,8.77
2019-03-05T14:03:56.422Z,7.70
2019-03-05T14:07:45.338Z,7.57
2019-03-05T14:10:50.866Z,11.57
2019-03-05T14:13:56.702Z,9.40
2019-03-05T14:17:37.454Z,10.03
2019-03-05T14:20:42.807Z,7.27
2019-03-05T14:23:48.171Z,9.10
2019-03-05T14:26:53.514Z,7.00
2019-03-05T14:29:58.742Z,6.80
2019-03-05T14:33:04.120Z,8.13
2019-03-05T14:36:09.397Z,9.00
2019-03-05T14:39:25.931Z,9.40
2019-03-05T14:42:31.848Z,7.90
2019-03-05T14:45:37.718Z,4.80
2019-03-05T14:48:43.004Z,12.93
2019-03-05T14:51:48.302Z,7.30
2019-03-05T14:54:53.736Z,7.20
2019-03-05T14:57:59.223Z,7.00
2019-03-05T15:01:05.722Z,8.13
2019-03-05T15:04:11.006Z,6.47
2019-03-05T15:07:16.314Z,5.50
2019-03-05T15:10:21.708Z,13.93
2019-03-05T15:13:28.617Z,11.07
2019-03-05T15:16:34.034Z,5.80
2019-03-05T15:19:39.329Z,7.30
2019-03-05T15:22:44.686Z,9.30
2019-03-05T15:25:50.104Z,5.13
2019-03-05T15:28:56.685Z,7.50
2019-03-05T15:32:03.398Z,9.70
2019-03-05T15:35:08.976Z,12.47
2019-03-05T15:38:14.402Z,7.17
2019-03-05T15:41:19.763Z,7.20
2019-03-05T15:44:25.181Z,6.93
2019-03-05T15:47:30.537Z,10.87
2019-03-05T15:50:35.943Z,8.00
2019-03-05T15:53:42.538Z,7.37
2019-03-05T15:56:47.887Z,7.27
2019-03-05T15:59:53.246Z,5.97
2019-03-05T16:03:00.409Z,6.27
2019-03-05T16:06:05.761Z,8.60
2019-03-05T16:09:18.412Z,8.37
2019-03-05T16:12:23.881Z,13.10
2019-03-05T16:15:29.535Z,9.30
2019-03-05T16:18:39.148Z,10.13
2019-03-05T16:21:42.895Z,10.40
2019-03-05T16:24:48.348Z,7.77
2019-03-05T16:27:53.712Z,10.27
2019-03-05T16:31:11.537Z,7.50
2019-03-05T16:34:29.420Z,12.83
2019-03-05T16:37:57.739Z,9.73
2019-03-05T16:41:24.142Z,8.73
2019-03-05T16:44:45.351Z,11.70
2019-03-05T16:48:04.233Z,9.00
2019-03-05T16:51:27.893Z,10.00
2019-03-05T16:55:04.633Z,8.37
2019-03-05T16:58:22.721Z,12.77
2019-03-05T17:01:46.946Z,11.60
2019-03-05T17:05:11.187Z,11.63
2019-03-05T17:08:35.760Z,17.00
2019-03-05T17:11:54.549Z,10.43
2019-03-05T17:14:59.868Z,12.63
2019-03-05T17:18:05.745Z,8.93
2019-03-05T17:21:11.017Z,7.20
2019-03-05T17:24:16.829Z,8.13
2019-03-05T17:27:22.216Z,13.43
2019-03-05T17:30:27.578Z,13.63
2019-03-05T17:33:33.890Z,10.40
2019-03-05T17:36:40.175Z,18.13
2019-03-05T17:39:45.551Z,17.33
2019-03-05T17:42:51.120Z,16.83
2019-03-05T17:45:56.399Z,13.70
2019-03-05T17:49:01.665Z,14.63
2019-03-05T17:52:07.064Z,10.40
2019-03-05T17:55:23.879Z,9.03
2019-03-05T17:58:22.535Z,10.53
2019-03-05T18:01:27.850Z,9.80
2019-03-05T18:04:34.178Z,12.07
2019-03-05T18:07:39.663Z,12.03
2019-03-05T18:10:45.165Z,13.90
2019-03-05T18:13:50.635Z,10.77
2019-03-05T18:16:56.050Z,13.00
2019-03-05T18:20:03.037Z,15.70
2019-03-05T18:23:09.904Z,13.07
2019-03-05T18:26:15.271Z,15.03
2019-03-05T18:29:20.845Z,10.03
2019-03-05T18:32:26.469Z,13.77
2019-03-05T18:35:31.729Z,12.70
2019-03-05T18:38:37.036Z,14.80
2019-03-05T18:41:42.435Z,15.50
2019-03-05T18:44:48.132Z,14.47
2019-03-05T18:47:53.515Z,13.90
2019-03-05T18:50:58.917Z,15.63
2019-03-05T18:54:04.275Z,14.80
2019-03-05T18:57:09.633Z,13.90
2019-03-05T19:00:17.921Z,22.10
2019-03-05T19:03:23.211Z,14.10
2019-03-05T19:06:28.707Z,22.83
2019-03-05T19:09:34.221Z,11.97
2019-03-05T19:12:39.612Z,13.40
2019-03-05T19:15:46.003Z,22.60
2019-03-05T19:18:51.399Z,16.97
2019-03-05T19:21:56.755Z,11.93
2019-03-05T19:25:02.102Z,12.63
2019-03-05T19:28:07.587Z,13.80
2019-03-05T19:31:13.087Z,13.50
2019-03-05T19:34:18.547Z,17.97
2019-03-05T19:37:23.875Z,12.40
2019-03-05T19:40:31.443Z,14.60
2019-03-05T19:43:36.871Z,10.70
2019-03-05T19:46:42.202Z,14.37
2019-03-05T19:49:47.610Z,13.83
2019-03-05T19:52:53.110Z,13.27
2019-03-05T19:55:58.444Z,12.80
2019-03-05T19:59:03.800Z,11.43
2019-03-05T20:02:09.120Z,14.93
2019-03-05T20:05:16.275Z,12.50
2019-03-05T20:08:21.959Z,15.97
2019-03-05T20:11:27.331Z,14.27
2019-03-05T20:14:32.652Z,12.73
2019-03-05T20:17:37.988Z,11.77
2019-03-05T20:20:43.302Z,13.23
2019-03-05T20:23:48.535Z,16.50
2019-03-05T20:26:53.924Z,12.00
2019-03-05T20:29:59.255Z,10.70
2019-03-05T20:33:05.807Z,14.43
2019-03-05T20:36:11.286Z,13.70
2019-03-05T20:39:17.110Z,14.53
2019-03-05T20:42:22.564Z,16.53
2019-03-05T20:45:29.476Z,17.40
2019-03-05T20:48:34.860Z,12.87
2019-03-05T20:51:45.755Z,12.17
2019-03-05T20:54:51.253Z,15.60
2019-03-05T20:57:56.889Z,13.90
2019-03-05T21:01:02.310Z,13.33
2019-03-05T21:04:07.729Z,14.23
2019-03-05T21:07:13.217Z,18.57
2019-03-05T21:10:18.652Z,14.90
2019-03-05T21:13:24.026Z,14.90
2019-03-05T21:16:30.520Z,13.40
2019-03-05T21:19:35.827Z,14.07
2019-03-05T21:22:42.106Z,14.20
2019-03-05T21:25:47.410Z,14.60
2019-03-05T21:28:52.701Z,14.10
2019-03-05T21:31:58.046Z,15.40
2019-03-05T21:35:04.396Z,11.90
2019-03-05T21:38:11.100Z,13.27
2019-03-05T21:41:16.588Z,14.00
2019-03-05T21:44:21.973Z,14.77
2019-03-05T21:47:30.199Z,14.27
2019-03-05T21:50:35.556Z,12.93
2019-03-05T21:53:40.958Z,15.20
2019-03-05T21:56:46.271Z,18.63
2019-03-05T21:59:51.769Z,12.77
2019-03-05T22:02:57.855Z,12.80
2019-03-05T22:06:03.088Z,14.33
2019-03-05T22:09:08.374Z,10.87
2019-03-05T22:12:15.225Z,13.77
2019-03-05T22:15:20.786Z,12.27
2019-03-05T22:18:26.127Z,11.53
2019-03-05T22:21:31.486Z,15.63
2019-03-05T22:24:36.826Z,16.23
2019-03-05T22:27:42.149Z,10.33
2019-03-05T22:30:52.485Z,10.83
2019-03-05T22:33:56.579Z,13.17
2019-03-05T22:37:05.147Z,13.73
2019-03-05T22:40:10.765Z,12.83
2019-03-05T22:43:16.212Z,12.17
2019-03-05T22:46:21.688Z,12.30
2019-03-05T22:49:26.975Z,14.13
2019-03-05T22:52:32.289Z,13.50
2019-03-05T22:55:37.639Z,13.67
2019-03-05T22:58:42.886Z,10.27
2019-03-05T23:01:49.154Z,13.30
2019-03-05T23:04:55.475Z,11.30
2019-03-05T23:08:00.866Z,10.00
2019-03-05T23:11:07.783Z,18.70
2019-03-05T23:14:13.349Z,8.70
2019-03-05T23:17:22.788Z,10.83
2019-03-05T23:20:28.265Z,11.20
2019-03-05T23:23:33.816Z,7.73
2019-03-05T23:26:40.104Z,18.27
2019-03-05T23:29:46.904Z,10.77
2019-03-05T23:32:52.543Z,9.67
2019-03-05T23:35:57.835Z,10.60
2019-03-05T23:39:04.834Z,9.67
2019-03-05T23:42:11.750Z,9.97
2019-03-05T23:45:22.245Z,11.33
2019-03-05T23:48:27.516Z,8.70
2019-03-05T23:51:33.119Z,7.03
2019-03-05T23:54:38.405Z,13.57
2019-03-05T23:57:43.688Z,9.90
